West Glacier, MT (59936)

12:23 AM MST on December 11, 2016 (GMT -0700)
Teakettle Mt. | | Change Station
Active Advisory: Winter Storm Watch

Elev 3715 ft 48.44 °N, 114.11 °W | Updated 6 seconds ago

Overcast
Overcast
17.1 °F
Feels Like 17 °F
N
0.0
Wind Variable Wind from North
Gusts 0.0 mph

Today
High -- | Low -- °F
--% Chance of Precip.
Yesterday
High -- | Low -- °F
Precip. -- in
Pressure 30.10 in
Visibility 10.0 miles
Clouds Clear
Windchill 17 °F
Dew Point 15 °F
Humidity 92%
Rainfall 0.00 in
Snow Depth Not available.
8:18 AM 4:40 PM
Waxing Gibbous, 89% visible
METAR KCTB 110656Z AUTO 33003KT 10SM CLR M27/M29 A2981 RMK AO2 SLP192 T12671289 411441267
Pressure 30.10 in
Visibility 10.0 miles
Clouds Clear
Windchill 17 °F
Dew Point 15 °F
Humidity 92%
Rainfall 0.00 in
Snow Depth Not available.
8:18 AM 4:40 PM
Waxing Gibbous, 89% visible
METAR KCTB 110656Z AUTO 33003KT 10SM CLR M27/M29 A2981 RMK AO2 SLP192 T12671289 411441267

10-Day Weather Forecast

Almanac

Astronomy

Dec. 11, 2016 Rise Set
Actual Time
Civil Twilight
Nautical Twilight
Astronomical Twilight
Moon
Length of Visible Light
Length of Day
Tomorrow will be .
, % of the Moon is Illuminated

Today's Extremes

State Highs State Lows

Community

WunderPhotos

Upload Photos

1,956,707 photos uploaded!

WunderBlog® & News

Nearby

Air Quality

  Air Quality AQ Index Pollutant
Not available.

Snow Depth

Station Depth Elevation

Earthquake Activity

City Distance Mag. Time & Date
Minimum magnitude displayed is 2.5.

Coastal Water Temperatures

Place Temperature

Stations

Nearby Weather Stations

Station Location Temp. Windchill Dew Point Humidity Wind Precip. Elev Updated Type
                   

Watches & Warnings

Winter Storm Watch
Issued: 2:34 PM MST Dec. 10, 2016 – National Weather Service

... Winter Storm Watch in effect from Sunday evening through
Monday evening...

* impacts/timing: another impressive surge of Arctic air will pour
across the Continental Divide and into the northern rockies
Monday. The combination of gusty winds, freshly fallen snow and
periods of additional heavy snow along the Arctic boundary could
lead to dangerous travel conditions Monday, especially during
the morning hours.

* Snow accumulations: an additional 3 to 7 inches throughout the
valleys with up to another foot throughout the higher terrain.

* Winds: steady north to east winds of 15 to 30 mph winds will be
developing as the Arctic boundary pushes across the Continental
Divide. Frequent gusts to 40 mph are possible with occasional
gusts to near 50 mph along US-2 and through bad Rock Canyon.

* Locations impacted include: bad Rock Canyon, Essex, Highway 83
Bigfork to Swan Lake, Marias Pass, Polebridge, Flathead Lake,
Flathead Valley, Mission Valley, and Polson